Time,TemperatureF,DewpointF,PressureIn,WindDirection,WindDirectionDegrees,WindSpeedMPH,WindSpeedGustMPH,Humidity,HourlyPrecipIn,Conditions,Clouds,dailyrainin,SolarRadiationWatts/m^2,SoftwareType,DateUTC
2013-03-02 00:06:00,12.3,7.0,30.20,North,354,3.0,3.0,79,0.00,,,0.00,0,Wunderground v.1.15,2013-03-02 06:06:00,
2013-03-02 00:11:00,12.2,6.9,30.20,North,354,0.0,0.0,79,0.00,,,0.00,0,Wunderground v.1.15,2013-03-02 06:11:00,
2013-03-02 00:21:00,11.6,6.6,30.20,North,354,2.0,2.0,80,0.00,,,0.00,0,Wunderground v.1.15,2013-03-02 06:21:00,
2013-03-02 00:31:00,11.3,6.3,30.20,North,354,1.0,1.0,80,0.00,,,0.00,0,Wunderground v.1.15,2013-03-02 06:31:00,
2013-03-02 00:41:00,11.0,6.3,30.20,North,354,0.0,0.0,81,0.00,,,0.00,0,Wunderground v.1.15,2013-03-02 06:41:00,
2013-03-02 00:51:00,10.5,5.3,30.20,North,354,0.0,0.0,79,0.00,,,0.00,0,Wunderground v.1.15,2013-03-02 06:51:00,
2013-03-02 01:01:00,10.0,4.2,30.20,North,354,0.0,0.0,77,0.00,,,0.00,0,Wunderground v.1.15,2013-03-02 07:01:00,
2013-03-02 01:06:00,9.7,3.9,30.21,North,354,0.0,0.0,77,0.00,,,0.00,0,Wunderground v.1.15,2013-03-02 07:06:00,
2013-03-02 01:16:00,9.0,3.5,30.21,North,354,0.0,0.0,78,0.00,,,0.00,0,Wunderground v.1.15,2013-03-02 07:16:00,
2013-03-02 01:26:00,8.7,3.5,30.21,North,354,0.0,0.0,79,0.00,,,0.00,0,Wunderground v.1.15,2013-03-02 07:26:00,
2013-03-02 01:36:00,8.7,3.8,30.21,North,354,0.0,0.0,80,0.00,,,0.00,0,Wunderground v.1.15,2013-03-02 07:36:00,
2013-03-02 01:46:00,8.3,3.1,30.21,North,354,0.0,0.0,79,0.00,,,0.00,0,Wunderground v.1.15,2013-03-02 07:46:00,
2013-03-02 01:51:00,8.0,2.8,30.21,North,354,0.0,0.0,79,0.00,,,0.00,0,Wunderground v.1.15,2013-03-02 07:51:00,
2013-03-02 02:01:00,7.7,3.1,30.21,North,354,0.0,0.0,81,0.00,,,0.00,0,Wunderground v.1.15,2013-03-02 08:01:00,
2013-03-02 02:06:00,7.7,2.8,30.21,North,354,0.0,0.0,80,0.00,,,0.00,0,Wunderground v.1.15,2013-03-02 08:06:00,
2013-03-02 02:16:00,7.9,3.3,30.21,North,354,0.0,0.0,81,0.00,,,0.00,0,Wunderground v.1.15,2013-03-02 08:16:00,
2013-03-02 02:26:00,7.9,3.3,30.21,North,354,0.0,1.0,81,0.00,,,0.00,0,Wunderground v.1.15,2013-03-02 08:26:00,
2013-03-02 02:36:00,7.8,2.9,30.20,North,354,0.0,0.0,80,0.00,,,0.00,0,Wunderground v.1.15,2013-03-02 08:36:00,
2013-03-02 02:46:00,7.7,2.8,30.21,North,354,0.0,0.0,80,0.00,,,0.00,0,Wunderground v.1.15,2013-03-02 08:46:00,
2013-03-02 02:51:00,7.6,2.4,30.20,North,354,0.0,0.0,79,0.00,,,0.00,0,Wunderground v.1.15,2013-03-02 08:51:00,
2013-03-02 03:01:00,7.3,2.2,30.20,North,354,1.0,1.0,79,0.00,,,0.00,0,Wunderground v.1.15,2013-03-02 09:01:00,
2013-03-02 03:06:00,6.8,1.4,30.21,North,354,3.0,3.0,78,0.00,,,0.00,0,Wunderground v.1.15,2013-03-02 09:06:00,
2013-03-02 03:16:00,6.6,1.5,30.20,North,354,1.0,2.0,79,0.00,,,0.00,0,Wunderground v.1.15,2013-03-02 09:16:00,
2013-03-02 03:21:00,6.7,1.6,30.20,North,354,2.0,2.0,79,0.00,,,0.00,0,Wunderground v.1.15,2013-03-02 09:21:00,
2013-03-02 03:31:00,6.7,1.6,30.20,North,354,0.0,0.0,79,0.00,,,0.00,0,Wunderground v.1.15,2013-03-02 09:31:00,
2013-03-02 03:41:00,6.6,1.5,30.20,North,354,0.0,0.0,79,0.00,,,0.00,0,Wunderground v.1.15,2013-03-02 09:41:00,
2013-03-02 03:46:00,6.6,1.7,30.20,North,354,0.0,0.0,80,0.00,,,0.00,0,Wunderground v.1.15,2013-03-02 09:46:00,
2013-03-02 03:56:00,6.3,1.4,30.21,North,354,0.0,0.0,80,0.00,,,0.00,0,Wunderground v.1.15,2013-03-02 09:56:00,
2013-03-02 04:06:00,6.1,1.3,30.20,North,354,0.0,0.0,80,0.00,,,0.00,0,Wunderground v.1.15,2013-03-02 10:06:00,
2013-03-02 04:11:00,5.8,0.7,30.20,North,354,3.0,3.0,79,0.00,,,0.00,0,Wunderground v.1.15,2013-03-02 10:11:00,
2013-03-02 04:21:00,5.3,-0.1,30.20,North,354,0.0,0.0,78,0.00,,,0.00,0,Wunderground v.1.15,2013-03-02 10:21:00,
2013-03-02 04:31:00,5.2,0.1,30.21,North,354,0.0,0.0,79,0.00,,,0.00,0,Wunderground v.1.15,2013-03-02 10:31:00,
2013-03-02 04:36:00,4.9,-0.2,30.20,North,354,2.0,2.0,79,0.00,,,0.00,0,Wunderground v.1.15,2013-03-02 10:36:00,
2013-03-02 04:46:00,4.3,-1.0,30.21,North,354,2.0,3.0,78,0.00,,,0.00,0,Wunderground v.1.15,2013-03-02 10:46:00,
2013-03-02 04:56:00,4.3,-0.2,30.21,North,354,0.0,1.0,81,0.00,,,0.00,0,Wunderground v.1.15,2013-03-02 10:56:00,
2013-03-02 05:01:00,4.3,-0.2,30.21,North,354,0.0,0.0,81,0.00,,,0.00,0,Wunderground v.1.15,2013-03-02 11:01:00,
2013-03-02 05:11:00,4.2,-0.6,30.21,North,354,3.0,3.0,80,0.00,,,0.00,0,Wunderground v.1.15,2013-03-02 11:11:00,
2013-03-02 05:16:00,4.2,-0.3,30.22,North,354,2.0,3.0,81,0.00,,,0.00,0,Wunderground v.1.15,2013-03-02 11:16:00,
2013-03-02 05:26:00,4.0,-0.5,30.21,North,354,3.0,3.0,81,0.00,,,0.00,0,Wunderground v.1.15,2013-03-02 11:26:00,
2013-03-02 05:36:00,3.5,-1.3,30.22,North,354,2.0,2.0,80,0.00,,,0.00,0,Wunderground v.1.15,2013-03-02 11:36:00,
2013-03-02 05:46:00,3.3,-1.5,30.22,North,354,2.0,3.0,80,0.00,,,0.00,0,Wunderground v.1.15,2013-03-02 11:46:00,
2013-03-02 05:56:00,3.1,-1.2,30.22,North,354,3.0,3.0,82,0.00,,,0.00,0,Wunderground v.1.15,2013-03-02 11:56:00,
2013-03-02 06:06:00,3.6,-0.2,30.22,NW,322,3.0,4.0,84,0.00,,,0.00,0,Wunderground v.1.15,2013-03-02 12:06:00,
2013-03-02 06:11:00,3.8,-0.2,30.22,NW,322,2.0,2.0,83,0.00,,,0.00,0,Wunderground v.1.15,2013-03-02 12:11:00,
2013-03-02 06:21:00,3.8,-0.2,30.22,NW,321,1.0,1.0,83,0.00,,,0.00,0,Wunderground v.1.15,2013-03-02 12:21:00,
2013-03-02 06:31:00,3.5,-0.8,30.22,NW,322,2.0,2.0,82,0.00,,,0.00,0,Wunderground v.1.15,2013-03-02 12:31:00,
2013-03-02 06:41:00,3.3,-1.2,30.21,NW,322,0.0,0.0,81,0.00,,,0.00,0,Wunderground v.1.15,2013-03-02 12:41:00,
2013-03-02 06:51:00,3.4,-1.1,30.21,NW,322,0.0,0.0,81,0.00,,,0.00,0,Wunderground v.1.15,2013-03-02 12:51:00,
2013-03-02 06:56:00,3.5,-1.0,30.21,NW,322,2.0,2.0,81,0.00,,,0.00,0,Wunderground v.1.15,2013-03-02 12:56:00,
2013-03-02 07:06:00,3.5,-1.3,30.21,NW,322,1.0,1.0,80,0.00,,,0.00,0,Wunderground v.1.15,2013-03-02 13:06:00,
2013-03-02 07:16:00,3.6,-1.2,30.20,NW,317,0.0,6.0,80,0.00,,,0.00,0,Wunderground v.1.15,2013-03-02 13:16:00,
2013-03-02 07:26:00,4.3,-0.2,30.20,NW,317,2.0,2.0,81,0.00,,,0.00,0,Wunderground v.1.15,2013-03-02 13:26:00,
2013-03-02 07:36:00,5.4,1.1,30.20,NW,317,1.0,3.0,82,0.00,,,0.00,0,Wunderground v.1.15,2013-03-02 13:36:00,
2013-03-02 07:46:00,6.5,1.9,30.20,NW,317,1.0,2.0,81,0.00,,,0.00,0,Wunderground v.1.15,2013-03-02 13:46:00,
2013-03-02 07:51:00,7.2,2.6,30.19,NW,317,2.0,2.0,81,0.00,,,0.00,0,Wunderground v.1.15,2013-03-02 13:51:00,
2013-03-02 08:01:00,8.3,3.7,30.20,NW,317,2.0,2.0,81,0.00,,,0.00,0,Wunderground v.1.15,2013-03-02 14:01:00,
2013-03-02 08:06:00,9.0,4.4,30.20,NNW,331,2.0,2.0,81,0.00,,,0.00,0,Wunderground v.1.15,2013-03-02 14:06:00,
2013-03-02 08:16:00,10.4,5.5,30.20,NNW,343,6.0,6.0,80,0.00,,,0.00,0,Wunderground v.1.15,2013-03-02 14:16:00,
2013-03-02 08:26:00,11.5,5.7,30.20,North,355,7.0,7.0,77,0.00,,,0.00,0,Wunderground v.1.15,2013-03-02 14:26:00,
2013-03-02 08:36:00,12.2,5.8,30.20,North,0,6.0,6.0,75,0.00,,,0.00,0,Wunderground v.1.15,2013-03-02 14:36:00,
2013-03-02 08:46:00,12.8,6.1,30.20,North,359,6.0,6.0,74,0.00,,,0.00,0,Wunderground v.1.15,2013-03-02 14:46:00,
2013-03-02 08:56:00,13.4,6.4,30.20,NNW,340,0.0,5.0,73,0.00,,,0.00,0,Wunderground v.1.15,2013-03-02 14:56:00,
2013-03-02 09:06:00,14.0,6.6,30.20,NNW,327,2.0,3.0,72,0.00,,,0.00,0,Wunderground v.1.15,2013-03-02 15:06:00,
2013-03-02 09:16:00,14.9,7.2,30.20,NNW,340,1.0,1.0,71,0.00,,,0.00,0,Wunderground v.1.15,2013-03-02 15:16:00,
2013-03-02 09:26:00,15.7,8.0,30.20,NNW,348,5.0,5.0,71,0.00,,,0.00,0,Wunderground v.1.15,2013-03-02 15:26:00,
2013-03-02 09:36:00,16.4,8.3,30.20,NNW,334,0.0,4.0,70,0.00,,,0.00,0,Wunderground v.1.15,2013-03-02 15:36:00,
2013-03-02 09:46:00,17.3,8.9,30.20,North,353,4.0,5.0,69,0.00,,,0.00,0,Wunderground v.1.15,2013-03-02 15:46:00,
2013-03-02 09:51:00,17.7,8.9,30.20,North,359,3.0,3.0,68,0.00,,,0.00,0,Wunderground v.1.15,2013-03-02 15:51:00,
2013-03-02 10:01:00,18.5,9.4,30.19,NNW,342,3.0,3.0,67,0.00,,,0.00,0,Wunderground v.1.15,2013-03-02 16:01:00,
2013-03-02 10:06:00,18.8,9.6,30.20,North,359,4.0,4.0,67,0.00,,,0.00,0,Wunderground v.1.15,2013-03-02 16:06:00,
2013-03-02 10:16:00,19.5,10.0,30.19,NNW,345,0.0,1.0,66,0.00,,,0.00,0,Wunderground v.1.15,2013-03-02 16:16:00,
2013-03-02 10:26:00,20.3,10.4,30.19,NW,312,3.0,4.0,65,0.00,,,0.00,0,Wunderground v.1.15,2013-03-02 16:26:00,
2013-03-02 10:36:00,21.0,11.1,30.19,NW,325,2.0,4.0,65,0.00,,,0.00,0,Wunderground v.1.15,2013-03-02 16:36:00,
2013-03-02 10:46:00,21.5,10.8,30.19,NW,315,5.0,5.0,63,0.00,,,0.00,0,Wunderground v.1.15,2013-03-02 16:46:00,
2013-03-02 10:56:00,22.0,11.3,30.19,NW,311,5.0,5.0,63,0.00,,,0.00,0,Wunderground v.1.15,2013-03-02 16:56:00,
2013-03-02 11:06:00,22.6,11.9,30.18,NNW,343,4.0,4.0,63,0.00,,,0.00,0,Wunderground v.1.15,2013-03-02 17:06:00,
2013-03-02 11:16:00,23.0,11.5,30.18,NNW,340,5.0,9.0,61,0.00,,,0.00,0,Wunderground v.1.15,2013-03-02 17:16:00,
2013-03-02 11:21:00,23.1,11.3,30.17,NNW,341,5.0,5.0,60,0.00,,,0.00,0,Wunderground v.1.15,2013-03-02 17:21:00,
2013-03-02 11:31:00,23.3,11.8,30.18,NW,323,3.0,3.0,61,0.00,,,0.00,0,Wunderground v.1.15,2013-03-02 17:31:00,
2013-03-02 11:41:00,23.9,11.6,30.17,NW,320,5.0,5.0,59,0.00,,,0.00,0,Wunderground v.1.15,2013-03-02 17:41:00,
2013-03-02 11:51:00,24.3,11.2,30.17,North,3,4.0,4.0,57,0.00,,,0.00,0,Wunderground v.1.15,2013-03-02 17:51:00,
2013-03-02 12:01:00,24.6,11.1,30.17,NNW,345,1.0,1.0,56,0.00,,,0.00,0,Wunderground v.1.15,2013-03-02 18:01:00,
2013-03-02 12:11:00,24.9,11.4,30.16,NW,325,3.0,3.0,56,0.00,,,0.00,0,Wunderground v.1.15,2013-03-02 18:11:00,
2013-03-02 12:16:00,25.1,11.6,30.16,NW,316,3.0,3.0,56,0.00,,,0.00,0,Wunderground v.1.15,2013-03-02 18:16:00,
2013-03-02 12:26:00,25.5,11.6,30.16,NW,320,9.0,9.0,55,0.00,,,0.00,0,Wunderground v.1.15,2013-03-02 18:26:00,
2013-03-02 12:36:00,25.8,11.4,30.16,NNW,344,8.0,8.0,54,0.00,,,0.00,0,Wunderground v.1.15,2013-03-02 18:36:00,
2013-03-02 12:46:00,25.9,11.1,30.16,NNW,331,5.0,6.0,53,0.00,,,0.00,0,Wunderground v.1.15,2013-03-02 18:46:00,
2013-03-02 12:56:00,26.3,11.5,30.15,NW,316,8.0,9.0,53,0.00,,,0.00,0,Wunderground v.1.15,2013-03-02 18:56:00,
2013-03-02 13:06:00,26.6,10.9,30.15,NW,312,10.0,11.0,51,0.00,,,0.00,0,Wunderground v.1.15,2013-03-02 19:06:00,
2013-03-02 13:11:00,26.8,11.1,30.15,NNW,334,12.0,12.0,51,0.00,,,0.00,0,Wunderground v.1.15,2013-03-02 19:11:00,
2013-03-02 13:21:00,26.9,11.6,30.15,NNW,331,4.0,4.0,52,0.00,,,0.00,0,Wunderground v.1.15,2013-03-02 19:21:00,
2013-03-02 13:31:00,27.0,11.3,30.14,NW,315,5.0,5.0,51,0.00,,,0.00,0,Wunderground v.1.15,2013-03-02 19:31:00,
2013-03-02 13:41:00,27.2,11.0,30.14,NW,324,3.0,3.0,50,0.00,,,0.00,0,Wunderground v.1.15,2013-03-02 19:41:00,
2013-03-02 13:51:00,27.7,10.5,30.14,NW,321,8.0,8.0,48,0.00,,,0.00,0,Wunderground v.1.15,2013-03-02 19:51:00,
2013-03-02 14:01:00,27.7,9.6,30.14,NW,320,6.0,6.0,46,0.00,,,0.00,0,Wunderground v.1.15,2013-03-02 20:01:00,
2013-03-02 14:06:00,27.8,9.7,30.14,NNW,339,10.0,10.0,46,0.00,,,0.00,0,Wunderground v.1.15,2013-03-02 20:06:00,
2013-03-02 14:11:00,27.6,10.4,30.13,NNW,337,6.0,6.0,48,0.00,,,0.00,0,Wunderground v.1.15,2013-03-02 20:11:00,
2013-03-02 14:21:00,28.1,10.9,30.13,NW,312,6.0,6.0,48,0.00,,,0.00,0,Wunderground v.1.15,2013-03-02 20:21:00,
2013-03-02 14:31:00,27.9,8.8,30.13,NNW,331,4.0,4.0,44,0.00,,,0.00,0,Wunderground v.1.15,2013-03-02 20:31:00,
2013-03-02 14:36:00,28.0,9.9,30.13,NNW,347,9.0,9.0,46,0.00,,,0.00,0,Wunderground v.1.15,2013-03-02 20:36:00,
2013-03-02 14:46:00,27.9,8.8,30.12,NNW,333,7.0,7.0,44,0.00,,,0.00,0,Wunderground v.1.15,2013-03-02 20:46:00,
2013-03-02 14:56:00,28.4,8.2,30.12,NNW,327,5.0,8.0,42,0.00,,,0.00,0,Wunderground v.1.15,2013-03-02 20:56:00,
2013-03-02 15:06:00,28.7,7.9,30.12,North,5,5.0,5.0,41,0.00,,,0.00,0,Wunderground v.1.15,2013-03-02 21:06:00,
2013-03-02 15:11:00,28.3,7.6,30.11,NNW,348,3.0,3.0,41,0.00,,,0.00,0,Wunderground v.1.15,2013-03-02 21:11:00,
2013-03-02 15:21:00,28.3,8.1,30.11,NNW,341,4.0,4.0,42,0.00,,,0.00,0,Wunderground v.1.15,2013-03-02 21:21:00,
2013-03-02 15:31:00,28.2,8.0,30.11,North,353,7.0,7.0,42,0.00,,,0.00,0,Wunderground v.1.15,2013-03-02 21:31:00,
2013-03-02 15:41:00,28.4,8.7,30.11,NNW,334,5.0,5.0,43,0.00,,,0.00,0,Wunderground v.1.15,2013-03-02 21:41:00,
2013-03-02 15:51:00,28.3,9.1,30.11,North,359,4.0,4.0,44,0.00,,,0.00,0,Wunderground v.1.15,2013-03-02 21:51:00,
2013-03-02 16:01:00,28.0,8.4,30.10,North,0,5.0,5.0,43,0.00,,,0.00,0,Wunderground v.1.15,2013-03-02 22:01:00,
2013-03-02 16:06:00,28.2,9.0,30.10,North,359,6.0,6.0,44,0.00,,,0.00,0,Wunderground v.1.15,2013-03-02 22:06:00,
2013-03-02 16:16:00,27.9,8.3,30.11,North,357,8.0,8.0,43,0.00,,,0.00,0,Wunderground v.1.15,2013-03-02 22:16:00,
2013-03-02 16:21:00,27.7,8.6,30.11,NNE,14,2.0,2.0,44,0.00,,,0.00,0,Wunderground v.1.15,2013-03-02 22:21:00,
2013-03-02 16:31:00,27.5,8.4,30.11,North,4,5.0,5.0,44,0.00,,,0.00,0,Wunderground v.1.15,2013-03-02 22:31:00,
2013-03-02 16:41:00,27.3,8.2,30.11,North,4,4.0,4.0,44,0.00,,,0.00,0,Wunderground v.1.15,2013-03-02 22:41:00,
2013-03-02 16:51:00,26.9,8.4,30.11,NNW,346,4.0,4.0,45,0.00,,,0.00,0,Wunderground v.1.15,2013-03-02 22:51:00,
2013-03-02 17:01:00,26.4,7.9,30.12,North,1,5.0,5.0,45,0.00,,,0.00,0,Wunderground v.1.15,2013-03-02 23:01:00,
2013-03-02 17:06:00,26.2,8.2,30.12,NNW,343,3.0,5.0,46,0.00,,,0.00,0,Wunderground v.1.15,2013-03-02 23:06:00,
2013-03-02 17:16:00,25.7,8.2,30.12,NNW,341,8.0,8.0,47,0.00,,,0.00,0,Wunderground v.1.15,2013-03-02 23:16:00,
2013-03-02 17:21:00,25.5,8.5,30.13,NNW,343,4.0,4.0,48,0.00,,,0.00,0,Wunderground v.1.15,2013-03-02 23:21:00,
2013-03-02 17:31:00,25.0,7.6,30.13,NW,323,3.0,3.0,47,0.00,,,0.00,0,Wunderground v.1.15,2013-03-02 23:31:00,
2013-03-02 17:41:00,24.6,7.2,30.12,North,357,4.0,4.0,47,0.00,,,0.00,0,Wunderground v.1.15,2013-03-02 23:41:00,
2013-03-02 17:46:00,24.4,7.0,30.13,North,354,0.0,4.0,47,0.00,,,0.00,0,Wunderground v.1.15,2013-03-02 23:46:00,
2013-03-02 17:56:00,23.6,7.2,30.12,North,356,3.0,3.0,49,0.00,,,0.00,0,Wunderground v.1.15,2013-03-02 23:56:00,
2013-03-02 18:06:00,22.8,6.9,30.12,North,356,2.0,3.0,50,0.00,,,0.00,0,Wunderground v.1.15,2013-03-03 00:06:00,
2013-03-02 18:16:00,21.8,6.8,30.12,North,356,2.0,2.0,52,0.00,,,0.00,0,Wunderground v.1.15,2013-03-03 00:16:00,
2013-03-02 18:21:00,21.4,6.5,30.13,North,356,0.0,0.0,52,0.00,,,0.00,0,Wunderground v.1.15,2013-03-03 00:21:00,
2013-03-02 18:31:00,20.6,7.4,30.13,North,356,1.0,1.0,56,0.00,,,0.00,0,Wunderground v.1.15,2013-03-03 00:31:00,
2013-03-02 18:41:00,19.8,6.6,30.13,North,356,3.0,3.0,56,0.00,,,0.00,0,Wunderground v.1.15,2013-03-03 00:41:00,
2013-03-02 18:46:00,19.1,6.0,30.13,North,356,2.0,3.0,56,0.00,,,0.00,0,Wunderground v.1.15,2013-03-03 00:46:00,
2013-03-02 18:56:00,17.8,5.1,30.12,North,356,3.0,3.0,57,0.00,,,0.00,0,Wunderground v.1.15,2013-03-03 00:56:00,
2013-03-02 19:06:00,17.0,5.1,30.13,North,356,2.0,3.0,59,0.00,,,0.00,0,Wunderground v.1.15,2013-03-03 01:06:00,
2013-03-02 19:16:00,16.0,4.2,30.13,North,356,0.0,0.0,59,0.00,,,0.00,0,Wunderground v.1.15,2013-03-03 01:16:00,
2013-03-02 19:21:00,15.7,4.6,30.12,North,356,2.0,2.0,61,0.00,,,0.00,0,Wunderground v.1.15,2013-03-03 01:21:00,
2013-03-02 19:31:00,15.2,4.1,30.13,North,356,1.0,1.0,61,0.00,,,0.00,0,Wunderground v.1.15,2013-03-03 01:31:00,
2013-03-02 19:41:00,15.0,5.0,30.12,North,356,0.0,0.0,64,0.00,,,0.00,0,Wunderground v.1.15,2013-03-03 01:41:00,
2013-03-02 19:51:00,14.5,4.9,30.12,North,356,0.0,0.0,65,0.00,,,0.00,0,Wunderground v.1.15,2013-03-03 01:51:00,
2013-03-02 20:01:00,14.0,4.4,30.12,North,356,0.0,0.0,65,0.00,,,0.00,0,Wunderground v.1.15,2013-03-03 02:01:00,
2013-03-02 20:11:00,13.8,4.9,30.11,North,356,0.0,0.0,67,0.00,,,0.00,0,Wunderground v.1.15,2013-03-03 02:11:00,
2013-03-02 20:21:00,13.7,4.8,30.11,North,356,0.0,0.0,67,0.00,,,0.00,0,Wunderground v.1.15,2013-03-03 02:21:00,
2013-03-02 20:31:00,12.5,3.0,30.10,WNW,292,1.0,1.0,65,0.00,,,0.00,0,Wunderground v.1.15,2013-03-03 02:31:00,
2013-03-02 20:41:00,12.3,3.4,30.11,WNW,292,1.0,1.0,67,0.00,,,0.00,0,Wunderground v.1.15,2013-03-03 02:41:00,
2013-03-02 20:51:00,11.8,2.6,30.11,WNW,292,1.0,1.0,66,0.00,,,0.00,0,Wunderground v.1.15,2013-03-03 02:51:00,
2013-03-02 21:01:00,12.0,3.1,30.11,WNW,292,2.0,2.0,67,0.00,,,0.00,0,Wunderground v.1.15,2013-03-03 03:01:00,
2013-03-02 21:11:00,12.7,4.1,30.10,WNW,292,0.0,0.0,68,0.00,,,0.00,0,Wunderground v.1.15,2013-03-03 03:11:00,
2013-03-02 21:21:00,13.4,4.8,30.10,WNW,292,0.0,0.0,68,0.00,,,0.00,0,Wunderground v.1.15,2013-03-03 03:21:00,
2013-03-02 21:31:00,13.8,4.9,30.10,WNW,292,1.0,1.0,67,0.00,,,0.00,0,Wunderground v.1.15,2013-03-03 03:31:00,
2013-03-02 21:41:00,14.2,5.2,30.10,WNW,292,2.0,2.0,67,0.00,,,0.00,0,Wunderground v.1.15,2013-03-03 03:41:00,
2013-03-02 21:51:00,14.3,5.7,30.10,WNW,292,0.0,0.0,68,0.00,,,0.00,0,Wunderground v.1.15,2013-03-03 03:51:00,
2013-03-02 22:01:00,14.2,5.6,30.10,WNW,292,0.0,0.0,68,0.00,,,0.00,0,Wunderground v.1.15,2013-03-03 04:01:00,
2013-03-02 22:06:00,14.1,5.8,30.09,WNW,292,0.0,0.0,69,0.00,,,0.00,0,Wunderground v.1.15,2013-03-03 04:06:00,
2013-03-02 22:16:00,14.0,5.7,30.10,WNW,292,0.0,0.0,69,0.00,,,0.00,0,Wunderground v.1.15,2013-03-03 04:16:00,
2013-03-02 22:26:00,13.9,5.6,30.10,WNW,292,1.0,1.0,69,0.00,,,0.00,0,Wunderground v.1.15,2013-03-03 04:26:00,
2013-03-02 22:36:00,13.9,5.6,30.09,WNW,292,0.0,0.0,69,0.00,,,0.00,0,Wunderground v.1.15,2013-03-03 04:36:00,
2013-03-02 22:46:00,13.8,5.5,30.09,WNW,292,0.0,0.0,69,0.00,,,0.00,0,Wunderground v.1.15,2013-03-03 04:46:00,
2013-03-02 22:51:00,13.6,5.3,30.09,WNW,292,0.0,0.0,69,0.00,,,0.00,0,Wunderground v.1.15,2013-03-03 04:51:00,
2013-03-02 23:01:00,13.1,5.1,30.09,WNW,292,2.0,2.0,70,0.00,,,0.00,0,Wunderground v.1.15,2013-03-03 05:01:00,
2013-03-02 23:06:00,12.7,4.8,30.08,WNW,292,2.0,2.0,70,0.00,,,0.00,0,Wunderground v.1.15,2013-03-03 05:06:00,
2013-03-02 23:11:00,12.5,4.3,30.08,WNW,292,2.0,2.0,69,0.00,,,0.00,0,Wunderground v.1.15,2013-03-03 05:11:00,
2013-03-02 23:16:00,12.4,4.2,30.08,WNW,292,3.0,3.0,69,0.00,,,0.00,0,Wunderground v.1.15,2013-03-03 05:16:00,
2013-03-02 23:21:00,12.1,3.9,30.08,WNW,292,1.0,1.0,69,0.00,,,0.00,0,Wunderground v.1.15,2013-03-03 05:21:00,
2013-03-02 23:26:00,11.8,3.9,30.08,WNW,292,2.0,2.0,70,0.00,,,0.00,0,Wunderground v.1.15,2013-03-03 05:26:00,
2013-03-02 23:36:00,11.4,3.8,30.08,WNW,292,2.0,2.0,71,0.00,,,0.00,0,Wunderground v.1.15,2013-03-03 05:36:00,
2013-03-02 23:46:00,10.9,3.6,30.08,WNW,292,2.0,2.0,72,0.00,,,0.00,0,Wunderground v.1.15,2013-03-03 05:46:00,
2013-03-02 23:51:00,10.7,3.7,30.08,WNW,292,0.0,0.0,73,0.00,,,0.00,0,Wunderground v.1.15,2013-03-03 05:51:00,